Time;durP1;ratioP1;P1;durP2;ratioP2;P2;SDS_P1;SDS_P2;PMS_P1;PMS_P2;Temp;Humidity;BMP_temperature;BMP_pressure;BME280_temperature;BME280_humidity;BME280_pressure;Samples;Min_cycle;Max_cycle;Signal;HPM_P1;HPM_P2
2023/10/23 00:01:47;;;;;;;24.75;12.00;;;;;;;;;;5094162;28;20062;-66
2023/10/23 00:04:13;;;;;;;25.52;12.88;;;;;;;;;;5095876;28;20040;-66
2023/10/23 00:06:39;;;;;;;25.25;12.43;;;;;;;;;;5078022;28;20032;-67
2023/10/23 00:09:04;;;;;;;22.65;12.43;;;;;;;;;;5060925;28;20032;-66
2023/10/23 00:11:31;;;;;;;22.50;12.25;;;;;;;;;;5077533;28;20049;-66
2023/10/23 00:13:56;;;;;;;23.48;12.57;;;;;;;;;;5094868;28;20027;-66
2023/10/23 00:16:22;;;;;;;29.52;13.32;;;;;;;;;;5093684;28;20480;-66
2023/10/23 00:18:48;;;;;;;31.98;12.82;;;;;;;;;;5076568;28;20040;-66
2023/10/23 00:21:15;;;;;;;28.17;13.88;;;;;;;;;;5094702;28;20131;-66
2023/10/23 00:23:40;;;;;;;39.28;13.75;;;;;;;;;;5094480;28;20044;-66
2023/10/23 00:26:06;;;;;;;100.72;16.30;;;;;;;;;;5093887;28;20093;-66
2023/10/23 00:28:32;;;;;;;90.13;16.05;;;;;;;;;;5094277;28;20509;-65
2023/10/23 00:30:58;;;;;;;32.85;14.90;;;;;;;;;;5059756;28;20902;-66
2023/10/23 00:33:25;;;;;;;29.52;13.98;;;;;;;;;;5076313;28;20097;-72
2023/10/23 00:35:51;;;;;;;24.02;12.88;;;;;;;;;;5076530;28;20047;-66
2023/10/23 00:38:16;;;;;;;26.30;13.75;;;;;;;;;;5093295;28;20028;-66
2023/10/23 00:40:42;;;;;;;22.42;12.63;;;;;;;;;;5076121;28;20043;-66
2023/10/23 00:43:16;;;;;;;24.27;12.38;;;;;;;;;;5094515;28;20393;-66
2023/10/23 00:46:02;;;;;;;21.20;11.77;;;;;;;;;;5109593;28;20173;-66
2023/10/23 00:48:28;;;;;;;22.80;11.65;;;;;;;;;;5093264;28;20046;-66
2023/10/23 00:50:58;;;;;;;21.17;11.52;;;;;;;;;;5076249;28;20076;-66
2023/10/23 00:53:27;;;;;;;21.77;11.65;;;;;;;;;;5092918;28;20028;-66
2023/10/23 00:55:54;;;;;;;22.95;12.68;;;;;;;;;;5075994;28;20390;-66
2023/10/23 00:58:20;;;;;;;24.77;12.77;;;;;;;;;;5092717;28;20131;-68
2023/10/23 01:00:46;;;;;;;22.40;11.60;;;;;;;;;;5092243;28;20135;-67
2023/10/23 01:03:12;;;;;;;22.98;12.20;;;;;;;;;;5059194;28;20056;-66
2023/10/23 01:05:38;;;;;;;18.38;10.82;;;;;;;;;;5094247;28;20544;-66
2023/10/23 01:08:04;;;;;;;22.75;11.45;;;;;;;;;;5093856;28;20035;-67
2023/10/23 01:10:29;;;;;;;20.30;11.77;;;;;;;;;;5093188;28;20036;-67
2023/10/23 01:12:56;;;;;;;20.95;11.25;;;;;;;;;;5075683;28;20035;-66
2023/10/23 01:15:22;;;;;;;23.02;11.27;;;;;;;;;;5058888;28;20434;-66
2023/10/23 01:17:52;;;;;;;30.17;12.82;;;;;;;;;;5092411;28;20047;-66
2023/10/23 01:20:18;;;;;;;19.80;11.18;;;;;;;;;;5091982;28;20097;-72
2023/10/23 01:22:44;;;;;;;20.23;11.32;;;;;;;;;;5075352;28;20075;-66
2023/10/23 01:25:12;;;;;;;26.80;11.25;;;;;;;;;;5092494;28;20028;-66
2023/10/23 01:27:38;;;;;;;21.05;11.75;;;;;;;;;;5058992;28;20458;-66
2023/10/23 01:30:05;;;;;;;22.02;11.73;;;;;;;;;;5093124;28;20409;-65
2023/10/23 01:32:31;;;;;;;23.75;11.90;;;;;;;;;;5075018;28;20036;-66
2023/10/23 01:34:56;;;;;;;23.88;11.90;;;;;;;;;;5091935;28;20193;-65
2023/10/23 01:37:22;;;;;;;18.75;11.07;;;;;;;;;;5074966;28;20054;-65
2023/10/23 01:39:47;;;;;;;44.00;12.25;;;;;;;;;;5091786;28;20122;-67
2023/10/23 01:42:13;;;;;;;19.38;11.23;;;;;;;;;;5091592;28;20050;-68
2023/10/23 01:44:38;;;;;;;29.48;12.48;;;;;;;;;;5073978;28;20032;-67
2023/10/23 01:47:05;;;;;;;20.50;11.35;;;;;;;;;;5091019;28;20347;-66
2023/10/23 01:49:31;;;;;;;21.50;11.60;;;;;;;;;;5091623;28;20035;-66
2023/10/23 01:51:56;;;;;;;21.08;12.30;;;;;;;;;;5074747;28;20035;-65
2023/10/23 01:54:22;;;;;;;19.70;10.70;;;;;;;;;;5092007;28;20382;-66
2023/10/23 01:56:48;;;;;;;20.42;10.55;;;;;;;;;;5107684;28;20039;-66
2023/10/23 01:59:14;;;;;;;18.70;11.15;;;;;;;;;;5092516;28;20522;-73
2023/10/23 02:01:40;;;;;;;20.85;10.98;;;;;;;;;;5074873;28;20485;-65
2023/10/23 02:04:06;;;;;;;19.90;10.20;;;;;;;;;;5091560;28;20383;-66
2023/10/23 02:06:31;;;;;;;18.58;10.38;;;;;;;;;;5074724;28;20470;-66
2023/10/23 02:08:58;;;;;;;16.42;9.25;;;;;;;;;;5092577;28;20040;-66
2023/10/23 02:11:23;;;;;;;18.20;9.98;;;;;;;;;;5092698;28;20040;-66
2023/10/23 02:13:49;;;;;;;16.40;9.23;;;;;;;;;;5074553;28;20038;-66
2023/10/23 02:16:15;;;;;;;20.30;10.57;;;;;;;;;;5091397;28;20066;-66
2023/10/23 02:18:43;;;;;;;16.50;8.85;;;;;;;;;;5092534;28;20032;-65
2023/10/23 02:21:09;;;;;;;14.25;8.43;;;;;;;;;;5091408;28;20126;-65
2023/10/23 02:23:35;;;;;;;14.93;8.38;;;;;;;;;;5090951;28;20130;-66
2023/10/23 02:26:02;;;;;;;11.32;7.53;;;;;;;;;;5090697;28;20043;-65
2023/10/23 02:28:28;;;;;;;12.65;7.75;;;;;;;;;;5092139;28;20123;-65
2023/10/23 02:30:54;;;;;;;11.50;7.50;;;;;;;;;;5090741;28;20101;-65
2023/10/23 02:33:20;;;;;;;14.57;8.52;;;;;;;;;;5107960;28;20032;-66
2023/10/23 02:35:46;;;;;;;16.83;8.15;;;;;;;;;;5070674;28;20029;-73
2023/10/23 02:38:12;;;;;;;13.40;8.02;;;;;;;;;;5074344;28;20343;-66
2023/10/23 02:40:37;;;;;;;11.82;7.25;;;;;;;;;;5071905;28;20094;-66
2023/10/23 02:43:03;;;;;;;13.68;7.93;;;;;;;;;;5090584;28;20578;-67
2023/10/23 02:45:29;;;;;;;14.73;8.57;;;;;;;;;;5090247;28;20040;-66
2023/10/23 02:47:55;;;;;;;12.73;8.10;;;;;;;;;;5051358;28;20462;-66
2023/10/23 02:50:22;;;;;;;13.13;8.32;;;;;;;;;;5090460;28;20059;-66
2023/10/23 02:52:48;;;;;;;17.58;8.90;;;;;;;;;;5090010;28;20343;-66
2023/10/23 02:55:14;;;;;;;15.35;9.15;;;;;;;;;;5090292;28;20127;-66
2023/10/23 02:57:40;;;;;;;18.42;9.07;;;;;;;;;;5090235;28;20047;-66
2023/10/23 03:00:06;;;;;;;18.23;9.75;;;;;;;;;;5072649;28;20406;-66
2023/10/23 03:02:33;;;;;;;27.23;10.90;;;;;;;;;;5086950;28;20504;-66
2023/10/23 03:04:59;;;;;;;25.90;9.63;;;;;;;;;;5090183;28;20039;-68
2023/10/23 03:07:24;;;;;;;17.00;9.18;;;;;;;;;;5091057;28;20035;-67
2023/10/23 03:09:50;;;;;;;18.92;8.98;;;;;;;;;;5089891;28;20039;-68
2023/10/23 03:12:16;;;;;;;28.55;9.40;;;;;;;;;;5090623;28;20039;-68
2023/10/23 03:14:42;;;;;;;42.05;10.15;;;;;;;;;;5053958;28;20040;-67
2023/10/23 03:17:07;;;;;;;44.97;10.35;;;;;;;;;;5091746;28;20047;-67
2023/10/23 03:19:33;;;;;;;36.15;10.23;;;;;;;;;;5072528;28;20036;-66
2023/10/23 03:21:59;;;;;;;77.25;12.48;;;;;;;;;;5091014;28;20043;-67
2023/10/23 03:24:24;;;;;;;111.45;11.52;;;;;;;;;;5090074;28;20378;-68
2023/10/23 03:26:50;;;;;;;31.13;10.45;;;;;;;;;;5073003;28;20062;-67
2023/10/23 03:29:16;;;;;;;68.93;11.30;;;;;;;;;;5107018;28;20135;-66
2023/10/23 03:31:43;;;;;;;76.25;12.45;;;;;;;;;;5089945;28;20032;-68
2023/10/23 03:34:09;;;;;;;114.88;12.10;;;;;;;;;;5106589;28;20560;-66
2023/10/23 03:36:35;;;;;;;60.25;13.00;;;;;;;;;;5072981;28;20036;-70
2023/10/23 03:39:01;;;;;;;67.82;11.80;;;;;;;;;;5073658;28;20438;-70
2023/10/23 03:41:27;;;;;;;97.82;13.18;;;;;;;;;;5056921;28;20052;-69
2023/10/23 03:43:53;;;;;;;82.88;11.15;;;;;;;;;;5090427;28;20070;-69
2023/10/23 03:46:19;;;;;;;49.00;11.63;;;;;;;;;;5073684;28;20177;-70
2023/10/23 03:48:46;;;;;;;49.25;11.75;;;;;;;;;;5090446;28;20130;-69
2023/10/23 03:51:12;;;;;;;119.80;14.65;;;;;;;;;;5089981;28;20133;-69
2023/10/23 03:53:38;;;;;;;88.60;13.88;;;;;;;;;;5090186;28;20047;-69
2023/10/23 03:56:04;;;;;;;156.63;15.73;;;;;;;;;;5090937;28;20073;-70
2023/10/23 03:58:30;;;;;;;64.22;13.80;;;;;;;;;;5073006;28;20078;-70
2023/10/23 04:00:56;;;;;;;54.88;13.60;;;;;;;;;;5088144;28;20068;-72
2023/10/23 04:03:22;;;;;;;34.38;11.27;;;;;;;;;;5089609;28;20447;-70
2023/10/23 04:05:48;;;;;;;107.75;15.05;;;;;;;;;;5089761;28;20036;-68
2023/10/23 04:08:14;;;;;;;38.28;12.68;;;;;;;;;;5054359;28;20086;-66
2023/10/23 04:10:44;;;;;;;159.57;17.02;;;;;;;;;;5072379;28;20042;-68
2023/10/23 04:13:10;;;;;;;272.17;22.77;;;;;;;;;;5087335;28;20024;-68
2023/10/23 04:15:35;;;;;;;214.60;18.98;;;;;;;;;;5073421;28;20493;-68
2023/10/23 04:18:01;;;;;;;355.23;25.27;;;;;;;;;;5090042;28;20040;-68
2023/10/23 04:20:27;;;;;;;328.65;23.40;;;;;;;;;;5073844;28;20473;-68
2023/10/23 04:22:52;;;;;;;97.78;15.10;;;;;;;;;;5110134;28;20394;-69
2023/10/23 04:25:18;;;;;;;359.55;23.88;;;;;;;;;;5091953;28;20441;-69
2023/10/23 04:27:44;;;;;;;308.42;20.25;;;;;;;;;;5076416;28;20032;-69
2023/10/23 04:30:10;;;;;;;271.90;22.02;;;;;;;;;;5090150;28;20349;-68
2023/10/23 04:32:36;;;;;;;374.65;24.48;;;;;;;;;;5073082;28;20055;-69
2023/10/23 04:35:02;;;;;;;211.73;16.83;;;;;;;;;;5066918;28;20463;-68
2023/10/23 04:37:29;;;;;;;252.23;20.42;;;;;;;;;;5073569;28;20470;-68
2023/10/23 04:39:55;;;;;;;387.95;26.65;;;;;;;;;;5092437;28;20084;-69
2023/10/23 04:42:20;;;;;;;316.65;20.98;;;;;;;;;;5090861;28;20075;-71
2023/10/23 04:44:59;;;;;;;435.33;26.10;;;;;;;;;;5076744;28;20057;-68
2023/10/23 04:47:25;;;;;;;198.27;16.70;;;;;;;;;;5093235;28;20062;-70
2023/10/23 04:49:51;;;;;;;325.15;25.48;;;;;;;;;;5075911;28;20028;-73
2023/10/23 04:52:18;;;;;;;483.30;30.88;;;;;;;;;;5092352;28;20043;-69
2023/10/23 04:54:43;;;;;;;712.47;36.03;;;;;;;;;;5109086;28;20081;-69
2023/10/23 04:57:09;;;;;;;438.08;27.92;;;;;;;;;;5092167;28;20440;-72
2023/10/23 04:59:35;;;;;;;430.23;28.35;;;;;;;;;;5075874;28;20036;-71
2023/10/23 05:02:01;;;;;;;429.98;26.15;;;;;;;;;;5075107;28;20146;-71
2023/10/23 05:04:30;;;;;;;356.67;26.05;;;;;;;;;;5093734;28;20122;-72
2023/10/23 05:06:57;;;;;;;176.05;18.40;;;;;;;;;;5075699;28;20057;-74
2023/10/23 05:09:22;;;;;;;310.95;25.75;;;;;;;;;;5073471;28;20123;-74
2023/10/23 05:11:48;;;;;;;407.48;28.65;;;;;;;;;;5058393;28;20428;-71
2023/10/23 05:14:14;;;;;;;477.92;33.03;;;;;;;;;;5092538;28;20032;-72
2023/10/23 05:16:40;;;;;;;237.15;21.30;;;;;;;;;;5058927;28;20035;-72
2023/10/23 05:19:06;;;;;;;325.30;27.90;;;;;;;;;;5075832;28;20036;-72
2023/10/23 05:21:32;;;;;;;475.42;32.28;;;;;;;;;;5092609;28;20474;-71
2023/10/23 05:23:57;;;;;;;216.77;22.50;;;;;;;;;;5092633;28;20028;-72
2023/10/23 05:26:23;;;;;;;362.80;23.92;;;;;;;;;;5075841;28;20074;-72
2023/10/23 05:28:54;;;;;;;688.30;37.58;;;;;;;;;;5092676;28;20043;-71
2023/10/23 05:31:20;;;;;;;178.52;19.98;;;;;;;;;;5092538;28;20031;-71
2023/10/23 05:33:46;;;;;;;243.70;21.42;;;;;;;;;;5092166;28;20078;-71
2023/10/23 05:36:12;;;;;;;335.58;22.40;;;;;;;;;;5092166;28;20142;-71
2023/10/23 05:38:38;;;;;;;167.70;18.85;;;;;;;;;;5092238;28;20036;-71
2023/10/23 05:41:05;;;;;;;198.15;19.27;;;;;;;;;;5092195;28;20126;-71
2023/10/23 05:43:31;;;;;;;229.85;20.90;;;;;;;;;;5092031;28;20063;-71
2023/10/23 05:45:57;;;;;;;101.75;16.90;;;;;;;;;;5058428;28;20067;-71
2023/10/23 05:48:23;;;;;;;186.88;18.35;;;;;;;;;;5075573;28;20032;-71
2023/10/23 05:51:03;;;;;;;273.65;21.10;;;;;;;;;;5091742;28;20535;-71
2023/10/23 05:53:29;;;;;;;114.70;15.52;;;;;;;;;;5092177;28;20062;-71
2023/10/23 05:55:59;;;;;;;85.15;15.85;;;;;;;;;;5092236;28;20466;-74
2023/10/23 05:58:25;;;;;;;86.18;15.20;;;;;;;;;;5092546;28;20047;-71
2023/10/23 06:00:51;;;;;;;100.50;16.02;;;;;;;;;;5092627;28;20036;-71
2023/10/23 06:03:16;;;;;;;64.97;15.65;;;;;;;;;;5092028;28;20060;-72
2023/10/23 06:05:42;;;;;;;125.40;16.63;;;;;;;;;;5075187;28;20040;-71
2023/10/23 06:08:08;;;;;;;62.80;15.05;;;;;;;;;;5092484;28;20032;-70
2023/10/23 06:10:41;;;;;;;98.25;16.73;;;;;;;;;;5075590;28;20042;-72
2023/10/23 06:13:07;;;;;;;84.20;15.20;;;;;;;;;;5075364;28;20389;-70
2023/10/23 06:15:33;;;;;;;103.22;18.83;;;;;;;;;;5091879;28;20039;-70
2023/10/23 06:17:58;;;;;;;76.35;16.05;;;;;;;;;;5075479;28;20031;-70
2023/10/23 06:20:24;;;;;;;164.30;17.65;;;;;;;;;;5093053;28;20064;-70
2023/10/23 06:22:49;;;;;;;82.68;15.88;;;;;;;;;;5075358;28;20521;-70
2023/10/23 06:25:15;;;;;;;153.18;19.30;;;;;;;;;;5092891;28;20131;-71
2023/10/23 06:27:41;;;;;;;366.52;28.15;;;;;;;;;;5058097;28;20419;-70
2023/10/23 06:30:06;;;;;;;267.35;24.52;;;;;;;;;;5092270;28;20036;-71
2023/10/23 06:32:33;;;;;;;225.07;23.15;;;;;;;;;;5074720;28;20367;-71
2023/10/23 06:34:59;;;;;;;128.40;20.65;;;;;;;;;;5091452;28;20474;-71
2023/10/23 06:37:24;;;;;;;115.00;19.58;;;;;;;;;;5074722;28;20120;-71
2023/10/23 06:39:50;;;;;;;91.57;19.80;;;;;;;;;;5091400;28;20040;-71
2023/10/23 06:42:15;;;;;;;78.32;19.88;;;;;;;;;;5091946;28;20474;-70
2023/10/23 06:44:41;;;;;;;130.95;23.58;;;;;;;;;;5074494;28;20036;-71
2023/10/23 06:47:07;;;;;;;70.03;18.92;;;;;;;;;;5091890;28;20036;-70
2023/10/23 06:49:32;;;;;;;65.00;18.95;;;;;;;;;;5074406;28;20529;-70
2023/10/23 06:51:59;;;;;;;73.85;19.10;;;;;;;;;;5108270;28;20130;-71
2023/10/23 06:54:26;;;;;;;66.13;18.65;;;;;;;;;;5074724;28;20035;-70
2023/10/23 06:56:53;;;;;;;80.90;19.23;;;;;;;;;;5091277;28;20432;-71
2023/10/23 06:59:18;;;;;;;84.55;17.88;;;;;;;;;;5091156;28;20033;-71
2023/10/23 07:01:44;;;;;;;110.03;19.25;;;;;;;;;;5074782;28;20104;-71
2023/10/23 07:04:23;;;;;;;55.35;16.48;;;;;;;;;;5099843;27;1546994;-70
2023/10/23 07:06:48;;;;;;;98.20;17.23;;;;;;;;;;5112553;28;20129;-71
2023/10/23 07:09:14;;;;;;;50.90;14.65;;;;;;;;;;5130493;28;20069;-70
2023/10/23 07:11:39;;;;;;;53.65;14.45;;;;;;;;;;5095118;28;20035;-71
2023/10/23 07:14:05;;;;;;;88.05;15.00;;;;;;;;;;5112088;28;20506;-71
2023/10/23 07:16:31;;;;;;;52.08;13.70;;;;;;;;;;5111818;28;20032;-72
2023/10/23 07:18:57;;;;;;;61.50;15.38;;;;;;;;;;5094988;28;20038;-71
2023/10/23 07:21:25;;;;;;;62.55;14.55;;;;;;;;;;5111680;28;20373;-70
2023/10/23 07:23:51;;;;;;;52.65;12.73;;;;;;;;;;5111777;28;20240;-71
2023/10/23 07:26:17;;;;;;;38.35;12.57;;;;;;;;;;5111532;28;20131;-71
2023/10/23 07:28:42;;;;;;;29.73;11.75;;;;;;;;;;5128633;28;20039;-73
2023/10/23 07:31:09;;;;;;;25.27;11.18;;;;;;;;;;5128659;28;20044;-71
2023/10/23 07:33:35;;;;;;;26.95;10.68;;;;;;;;;;5128672;28;20035;-71
2023/10/23 07:36:04;;;;;;;22.67;10.63;;;;;;;;;;5111654;28;20027;-71
2023/10/23 07:38:31;;;;;;;31.58;11.25;;;;;;;;;;5094496;28;20035;-74
2023/10/23 07:40:57;;;;;;;27.50;11.20;;;;;;;;;;5094691;28;20036;-71
2023/10/23 07:43:24;;;;;;;29.05;12.15;;;;;;;;;;5128465;28;20071;-71
2023/10/23 07:45:50;;;;;;;23.10;10.95;;;;;;;;;;5128353;28;20067;-70
2023/10/23 07:48:17;;;;;;;24.10;11.10;;;;;;;;;;5128674;28;20070;-71
2023/10/23 07:50:43;;;;;;;26.45;11.13;;;;;;;;;;5094458;28;20041;-71
2023/10/23 07:53:08;;;;;;;27.95;11.85;;;;;;;;;;5111158;28;20043;-71
2023/10/23 07:55:35;;;;;;;25.35;11.30;;;;;;;;;;5111260;28;20480;-71
2023/10/23 07:58:01;;;;;;;33.55;11.32;;;;;;;;;;5072748;28;20490;-72
2023/10/23 08:00:28;;;;;;;21.30;10.45;;;;;;;;;;5090203;28;20090;-71
2023/10/23 08:02:55;;;;;;;21.92;10.68;;;;;;;;;;5072383;28;20116;-71
2023/10/23 08:05:21;;;;;;;20.42;11.43;;;;;;;;;;5072737;28;20059;-71
2023/10/23 08:07:46;;;;;;;19.30;10.15;;;;;;;;;;5089267;28;20075;-71
2023/10/23 08:10:12;;;;;;;23.55;10.63;;;;;;;;;;5089557;28;20027;-71
2023/10/23 08:12:38;;;;;;;19.52;9.98;;;;;;;;;;5089368;28;20162;-71
2023/10/23 08:15:04;;;;;;;24.60;10.52;;;;;;;;;;5079923;28;20526;-72
2023/10/23 08:17:30;;;;;;;25.75;10.45;;;;;;;;;;5059552;28;20056;-71
2023/10/23 08:19:57;;;;;;;23.48;10.85;;;;;;;;;;5059030;28;20096;-71
2023/10/23 08:22:22;;;;;;;23.13;9.93;;;;;;;;;;5092832;28;20154;-71
2023/10/23 08:24:48;;;;;;;24.92;11.15;;;;;;;;;;5059153;28;20490;-71
2023/10/23 08:27:14;;;;;;;24.05;10.43;;;;;;;;;;5058942;28;20031;-71
2023/10/23 08:29:39;;;;;;;19.92;10.60;;;;;;;;;;5104793;28;20043;-71
2023/10/23 08:32:05;;;;;;;20.38;10.88;;;;;;;;;;5113817;28;20043;-71
2023/10/23 08:34:31;;;;;;;18.52;10.57;;;;;;;;;;5097118;28;20031;-71
2023/10/23 08:36:57;;;;;;;22.00;9.98;;;;;;;;;;5080069;28;20532;-70
2023/10/23 08:39:24;;;;;;;16.67;9.20;;;;;;;;;;5096832;28;20172;-71
2023/10/23 08:41:49;;;;;;;15.50;8.73;;;;;;;;;;5096811;28;20469;-70
2023/10/23 08:44:15;;;;;;;16.20;9.32;;;;;;;;;;5113646;28;20039;-70
2023/10/23 08:46:42;;;;;;;21.42;10.98;;;;;;;;;;5113843;28;20043;-71
2023/10/23 08:49:08;;;;;;;19.23;11.60;;;;;;;;;;5079657;28;20031;-71
2023/10/23 08:51:34;;;;;;;21.40;10.82;;;;;;;;;;5096542;28;20192;-71
2023/10/23 08:54:07;;;;;;;18.58;11.15;;;;;;;;;;5096698;28;20044;-71
2023/10/23 08:56:37;;;;;;;22.85;11.35;;;;;;;;;;5096983;28;20045;-71
2023/10/23 08:59:02;;;;;;;24.93;11.73;;;;;;;;;;5096750;28;20035;-71
2023/10/23 09:01:29;;;;;;;27.02;11.82;;;;;;;;;;5096634;28;20054;-71
2023/10/23 09:03:56;;;;;;;22.83;9.88;;;;;;;;;;5079588;28;20158;-71
2023/10/23 09:06:21;;;;;;;21.73;10.07;;;;;;;;;;5096399;28;20487;-71
2023/10/23 09:08:47;;;;;;;17.02;8.65;;;;;;;;;;5079426;28;20031;-71
2023/10/23 09:11:13;;;;;;;14.48;8.23;;;;;;;;;;5079311;28;20039;-71
2023/10/23 09:13:39;;;;;;;15.27;7.25;;;;;;;;;;5096068;28;20035;-73
2023/10/23 09:16:06;;;;;;;10.98;7.18;;;;;;;;;;5096463;28;20096;-71
2023/10/23 09:18:33;;;;;;;12.90;6.82;;;;;;;;;;5113608;28;20118;-71
2023/10/23 09:20:59;;;;;;;13.63;7.07;;;;;;;;;;5096014;28;20051;-71
2023/10/23 09:23:25;;;;;;;10.00;6.13;;;;;;;;;;5078884;28;20043;-74
2023/10/23 09:25:56;;;;;;;13.38;7.28;;;;;;;;;;5094660;28;20092;-71
2023/10/23 09:28:21;;;;;;;11.52;6.57;;;;;;;;;;5096122;28;20028;-71
2023/10/23 09:30:47;;;;;;;12.57;6.63;;;;;;;;;;5112689;28;20039;-74
2023/10/23 09:33:14;;;;;;;13.63;7.35;;;;;;;;;;5095334;28;20039;-71
2023/10/23 09:35:40;;;;;;;12.52;6.45;;;;;;;;;;5112542;28;20059;-71
2023/10/23 09:38:14;;;;;;;16.52;7.00;;;;;;;;;;5095920;28;20032;-70
2023/10/23 09:40:39;;;;;;;16.52;6.78;;;;;;;;;;5095627;28;20087;-71
2023/10/23 09:43:06;;;;;;;15.25;7.15;;;;;;;;;;5112798;28;20031;-71
2023/10/23 09:45:32;;;;;;;14.48;6.63;;;;;;;;;;5095427;28;20107;-71
2023/10/23 09:47:59;;;;;;;19.58;7.40;;;;;;;;;;5095390;28;20035;-71
2023/10/23 09:50:26;;;;;;;12.27;7.28;;;;;;;;;;5078762;28;20035;-71
2023/10/23 09:52:56;;;;;;;14.98;7.53;;;;;;;;;;5095314;28;20036;-71
2023/10/23 09:55:24;;;;;;;13.45;7.35;;;;;;;;;;5078348;28;20035;-71
2023/10/23 09:57:53;;;;;;;14.52;7.53;;;;;;;;;;5095169;28;20389;-71
2023/10/23 10:00:19;;;;;;;16.42;8.63;;;;;;;;;;5095110;28;20028;-71
2023/10/23 10:02:48;;;;;;;14.73;7.53;;;;;;;;;;5094759;28;20379;-71
2023/10/23 10:05:34;;;;;;;14.90;8.60;;;;;;;;;;5095127;28;20104;-71
2023/10/23 10:08:04;;;;;;;15.90;8.10;;;;;;;;;;5098408;28;20048;-71
2023/10/23 10:10:32;;;;;;;17.52;9.10;;;;;;;;;;5111345;28;20092;-70
2023/10/23 10:12:59;;;;;;;14.07;8.07;;;;;;;;;;5094719;28;20545;-70
2023/10/23 10:15:25;;;;;;;18.70;9.60;;;;;;;;;;5074220;28;20032;-70
2023/10/23 10:17:52;;;;;;;18.95;9.55;;;;;;;;;;5069002;28;20066;-70
2023/10/23 10:20:27;;;;;;;21.20;10.02;;;;;;;;;;5093649;28;20042;-70
2023/10/23 10:23:03;;;;;;;17.85;9.38;;;;;;;;;;5092020;28;20402;-70
2023/10/23 10:25:29;;;;;;;26.65;10.23;;;;;;;;;;5090913;28;20503;-70
2023/10/23 10:27:56;;;;;;;20.85;10.20;;;;;;;;;;5078580;28;20040;-71
2023/10/23 10:30:49;;;;;;;21.77;9.13;;;;;;;;;;5100004;28;20036;-70
2023/10/23 10:33:25;;;;;;;23.38;10.43;;;;;;;;;;5098035;28;20130;-70
2023/10/23 10:35:55;;;;;;;19.05;9.52;;;;;;;;;;5073226;28;20040;-71
2023/10/23 10:38:46;;;;;;;23.85;10.85;;;;;;;;;;5076933;28;20038;-70
2023/10/23 10:41:14;;;;;;;19.38;10.20;;;;;;;;;;5098668;28;20149;-70
2023/10/23 10:43:41;;;;;;;23.10;10.88;;;;;;;;;;5101639;28;20109;-72
2023/10/23 10:46:18;;;;;;;15.95;10.00;;;;;;;;;;5101038;28;20366;-69
2023/10/23 10:48:45;;;;;;;17.75;9.85;;;;;;;;;;5101928;28;20350;-69
2023/10/23 10:51:16;;;;;;;17.58;10.23;;;;;;;;;;5083964;28;20032;-71
2023/10/23 10:53:42;;;;;;;18.10;11.32;;;;;;;;;;5091370;28;20379;-71
2023/10/23 10:56:08;;;;;;;16.55;10.63;;;;;;;;;;5085376;28;20460;-72
2023/10/23 10:58:37;;;;;;;19.60;10.18;;;;;;;;;;5100198;28;20076;-72
2023/10/23 11:01:08;;;;;;;17.15;10.93;;;;;;;;;;5103340;28;20046;-72
2023/10/23 11:04:04;;;;;;;17.40;10.45;;;;;;;;;;5098759;28;20067;-75
2023/10/23 11:06:30;;;;;;;20.17;13.02;;;;;;;;;;5100566;28;20035;-73
2023/10/23 11:08:58;;;;;;;18.85;12.60;;;;;;;;;;5100656;28;20028;-73
2023/10/23 11:11:25;;;;;;;27.65;14.88;;;;;;;;;;5090646;28;20084;-72
2023/10/23 11:13:52;;;;;;;31.90;16.75;;;;;;;;;;5056918;28;20093;-72
2023/10/23 11:16:18;;;;;;;36.78;19.08;;;;;;;;;;5057429;28;20055;-72
2023/10/23 11:18:45;;;;;;;34.15;18.80;;;;;;;;;;5057262;28;20074;-72
2023/10/23 11:21:10;;;;;;;36.38;18.67;;;;;;;;;;5107512;28;20511;-73
2023/10/23 11:23:36;;;;;;;32.38;19.23;;;;;;;;;;5090353;28;20134;-72
2023/10/23 11:26:03;;;;;;;37.97;20.63;;;;;;;;;;5073303;28;20036;-71
2023/10/23 11:28:29;;;;;;;38.45;19.90;;;;;;;;;;5091854;28;20039;-72
2023/10/23 11:30:56;;;;;;;37.15;19.65;;;;;;;;;;5056830;28;20024;-72
2023/10/23 11:33:22;;;;;;;36.88;19.02;;;;;;;;;;5056598;28;20047;-71
2023/10/23 11:35:49;;;;;;;34.40;19.30;;;;;;;;;;5056814;28;20028;-71
2023/10/23 11:38:17;;;;;;;35.17;18.85;;;;;;;;;;5090019;28;20036;-69
2023/10/23 11:40:43;;;;;;;33.10;18.17;;;;;;;;;;5091167;28;20093;-72
2023/10/23 11:43:09;;;;;;;30.23;17.23;;;;;;;;;;5057075;28;20044;-75
2023/10/23 11:45:36;;;;;;;30.33;17.63;;;;;;;;;;5073375;28;20241;-73
2023/10/23 11:48:02;;;;;;;36.38;17.30;;;;;;;;;;5075491;28;20072;-72
2023/10/23 11:50:29;;;;;;;28.02;16.55;;;;;;;;;;5101178;28;20051;-73
2023/10/23 11:52:54;;;;;;;31.70;17.05;;;;;;;;;;5077085;28;20075;-73
2023/10/23 11:55:20;;;;;;;27.05;15.75;;;;;;;;;;5088659;28;20056;-74
2023/10/23 11:57:47;;;;;;;28.63;15.65;;;;;;;;;;5089351;28;20031;-73
2023/10/23 12:00:14;;;;;;;26.63;15.40;;;;;;;;;;5086057;28;20032;-71
2023/10/23 12:02:40;;;;;;;27.13;15.85;;;;;;;;;;5104313;28;20036;-77
2023/10/23 12:05:12;;;;;;;34.95;16.45;;;;;;;;;;5105677;28;20050;-72
2023/10/23 12:07:39;;;;;;;28.95;16.90;;;;;;;;;;5076567;28;20089;-71
2023/10/23 12:10:06;;;;;;;32.25;18.17;;;;;;;;;;5088115;28;20455;-71
2023/10/23 12:12:31;;;;;;;35.58;18.25;;;;;;;;;;5074318;28;20028;-71
2023/10/23 12:14:58;;;;;;;39.50;19.67;;;;;;;;;;5103323;28;20048;-70
2023/10/23 12:17:25;;;;;;;45.20;20.00;;;;;;;;;;5105095;28;20124;-70
2023/10/23 12:19:51;;;;;;;43.45;20.13;;;;;;;;;;5068424;28;20428;-72
2023/10/23 12:22:16;;;;;;;42.22;19.67;;;;;;;;;;5083295;28;20358;-72
2023/10/23 12:24:42;;;;;;;40.92;18.70;;;;;;;;;;5093153;28;20035;-71
2023/10/23 12:27:08;;;;;;;34.75;16.45;;;;;;;;;;5082140;28;20035;-71
2023/10/23 12:29:33;;;;;;;31.25;14.93;;;;;;;;;;5086171;28;20480;-71
2023/10/23 12:31:59;;;;;;;27.25;14.60;;;;;;;;;;5092571;28;20041;-72
2023/10/23 12:34:30;;;;;;;26.23;14.20;;;;;;;;;;5094165;28;20101;-74
2023/10/23 12:37:01;;;;;;;31.00;15.43;;;;;;;;;;5092314;28;20032;-76
2023/10/23 12:39:26;;;;;;;32.88;16.30;;;;;;;;;;5076024;28;20450;-76
2023/10/23 12:41:52;;;;;;;29.00;14.65;;;;;;;;;;5091958;28;20040;-76
2023/10/23 12:44:19;;;;;;;25.15;13.90;;;;;;;;;;5094582;28;20051;-72
2023/10/23 12:46:44;;;;;;;30.05;14.85;;;;;;;;;;5085066;28;20474;-79
2023/10/23 12:49:10;;;;;;;28.27;14.65;;;;;;;;;;5102624;28;20024;-75
2023/10/23 12:51:36;;;;;;;33.90;16.10;;;;;;;;;;5104057;28;20489;-75
2023/10/23 12:54:03;;;;;;;29.25;15.48;;;;;;;;;;5103761;28;20123;-74
2023/10/23 12:56:31;;;;;;;32.85;15.68;;;;;;;;;;5069591;28;20046;-75
2023/10/23 12:58:57;;;;;;;33.58;15.13;;;;;;;;;;5072652;28;20039;-76
2023/10/23 13:01:23;;;;;;;32.90;14.63;;;;;;;;;;5100393;28;20028;-75
2023/10/23 13:03:49;;;;;;;31.00;13.80;;;;;;;;;;5103056;28;20386;-75
2023/10/23 13:06:17;;;;;;;20.08;12.07;;;;;;;;;;5102530;28;20031;-75
2023/10/23 13:08:43;;;;;;;16.85;9.95;;;;;;;;;;5087190;28;20412;-76
2023/10/23 13:11:09;;;;;;;18.15;9.90;;;;;;;;;;5084437;28;20035;-76
2023/10/23 13:13:35;;;;;;;18.52;10.20;;;;;;;;;;5048519;28;20068;-75
2023/10/23 13:16:00;;;;;;;19.98;11.15;;;;;;;;;;5081022;28;20211;-75
2023/10/23 13:18:27;;;;;;;16.20;10.27;;;;;;;;;;5056007;28;20091;-76
2023/10/23 13:20:52;;;;;;;15.60;10.05;;;;;;;;;;5083010;28;20535;-74
2023/10/23 13:23:18;;;;;;;16.13;10.10;;;;;;;;;;5055090;28;20135;-74
2023/10/23 13:25:44;;;;;;;18.15;11.15;;;;;;;;;;5081450;28;20040;-76
2023/10/23 13:28:09;;;;;;;18.95;11.40;;;;;;;;;;5082200;28;20371;-76
2023/10/23 13:30:35;;;;;;;21.40;12.43;;;;;;;;;;5072972;28;20121;-75
2023/10/23 13:33:03;;;;;;;21.23;12.00;;;;;;;;;;5072533;28;20375;-76
2023/10/23 13:35:28;;;;;;;32.13;14.38;;;;;;;;;;5074607;28;20044;-72
2023/10/23 13:37:54;;;;;;;25.50;13.88;;;;;;;;;;5074207;28;20055;-72
2023/10/23 13:40:20;;;;;;;26.48;13.00;;;;;;;;;;5067640;28;20510;-74
2023/10/23 13:42:45;;;;;;;20.85;12.25;;;;;;;;;;5065426;28;20035;-74
2023/10/23 13:45:11;;;;;;;29.05;13.68;;;;;;;;;;5054436;28;20459;-73
2023/10/23 13:47:37;;;;;;;22.85;13.07;;;;;;;;;;5071597;28;20071;-74
2023/10/23 13:50:04;;;;;;;24.02;12.38;;;;;;;;;;5057173;28;20083;-74
2023/10/23 13:52:30;;;;;;;25.48;12.15;;;;;;;;;;5092406;28;20036;-74
2023/10/23 13:54:56;;;;;;;21.35;12.50;;;;;;;;;;5092334;28;20126;-74
2023/10/23 13:57:21;;;;;;;24.15;13.93;;;;;;;;;;5091943;28;20047;-74
2023/10/23 13:59:49;;;;;;;26.70;12.90;;;;;;;;;;5074949;28;20036;-75
2023/10/23 14:02:14;;;;;;;22.92;12.88;;;;;;;;;;5057994;28;20039;-74
2023/10/23 14:04:40;;;;;;;24.17;13.98;;;;;;;;;;5074767;28;20063;-74
2023/10/23 14:07:06;;;;;;;23.23;13.18;;;;;;;;;;5091696;28;20035;-74
2023/10/23 14:09:31;;;;;;;23.63;13.35;;;;;;;;;;5093070;28;20043;-74
2023/10/23 14:11:57;;;;;;;20.98;12.68;;;;;;;;;;5112364;28;20038;-74
2023/10/23 14:14:23;;;;;;;23.70;13.73;;;;;;;;;;5094832;28;20373;-74